Time;durP1;ratioP1;P1;durP2;ratioP2;P2;SDS_P1;SDS_P2;PMS_P1;PMS_P2;Temp;Humidity;BMP_temperature;BMP_pressure;BME280_temperature;BME280_humidity;BME280_pressure;Samples;Min_cycle;Max_cycle;Signal;HPM_P1;HPM_P2
2024/01/11 00:05:44;;;;;;;;;53.75;44.50;;;;;2.30;65.50;102017.09;4942863;28;45473;-80
2024/01/11 00:08:10;;;;;;;;;55.25;45.50;;;;;2.36;66.13;102012.25;4925927;28;45038;-79
2024/01/11 00:10:36;;;;;;;;;41.50;36.25;;;;;2.31;66.47;102016.31;4943557;28;45421;-80
2024/01/11 00:13:01;;;;;;;;;47.00;45.50;;;;;2.36;66.47;102017.50;4941747;28;45437;-80
2024/01/11 00:15:26;;;;;;;;;49.75;46.50;;;;;2.32;66.36;102016.41;4923283;28;45413;-80
2024/01/11 00:17:52;;;;;;;;;62.75;48.25;;;;;2.25;66.15;102003.66;4942586;28;44966;-81
2024/01/11 00:20:17;;;;;;;;;47.75;45.00;;;;;2.24;66.29;102006.19;4907733;28;45534;-80
2024/01/11 00:22:42;;;;;;;;;52.75;44.00;;;;;2.23;66.32;102014.88;4921360;28;45317;-81
2024/01/11 00:25:08;;;;;;;;;47.50;43.50;;;;;2.20;66.23;102000.75;4906516;28;45391;-80
2024/01/11 00:27:34;;;;;;;;;45.75;42.00;;;;;2.17;66.37;102005.75;4925110;28;45286;-80
2024/01/11 00:29:59;;;;;;;;;54.75;44.25;;;;;2.17;67.02;102004.88;4923995;28;45479;-80
2024/01/11 00:32:25;;;;;;;;;48.50;45.50;;;;;2.19;66.85;102019.00;4923902;28;45440;-80
2024/01/11 00:34:51;;;;;;;;;49.25;44.25;;;;;2.19;67.24;102026.88;4907628;28;44841;-80
2024/01/11 00:37:16;;;;;;;;;40.25;38.25;;;;;2.22;67.24;102020.91;4923052;28;45413;-80
2024/01/11 00:39:45;;;;;;;;;59.00;41.75;;;;;2.37;67.21;102035.09;4907789;28;44919;-80
2024/01/11 00:42:10;;;;;;;;;50.00;46.00;;;;;2.20;66.50;102029.63;4925156;28;45239;-81
2024/01/11 00:44:35;;;;;;;;;55.50;45.25;;;;;2.19;66.66;102035.66;4924760;28;45014;-80
2024/01/11 00:47:01;;;;;;;;;46.75;40.00;;;;;2.15;66.84;102025.75;4922212;28;45387;-81
2024/01/11 00:49:26;;;;;;;;;50.75;45.75;;;;;2.23;67.18;102036.78;4922705;28;44924;-81
2024/01/11 00:51:52;;;;;;;;;52.00;44.25;;;;;2.18;66.88;102032.91;4923664;28;45442;-80
2024/01/11 00:54:17;;;;;;;;;49.75;42.00;;;;;2.28;66.74;102051.09;4922971;28;45266;-80
2024/01/11 00:56:43;;;;;;;;;46.00;43.00;;;;;2.32;67.79;102041.75;4925296;28;44705;-80
2024/01/11 00:59:10;;;;;;;;;51.00;45.50;;;;;2.50;67.58;102042.97;4908444;28;44967;-80
2024/01/11 01:01:36;;;;;;;;;52.25;44.75;;;;;2.51;67.46;102049.16;4924451;28;45257;-81
2024/01/11 01:04:01;;;;;;;;;59.75;45.75;;;;;2.58;66.06;102048.75;4924914;28;45414;-80
2024/01/11 01:06:27;;;;;;;;;45.50;38.50;;;;;2.62;66.39;102044.63;4907857;28;44801;-79
2024/01/11 01:08:55;;;;;;;;;50.00;43.25;;;;;2.68;66.45;102038.06;4907033;28;45005;-79
2024/01/11 01:11:21;;;;;;;;;60.50;48.25;;;;;2.69;66.84;102060.00;4906558;28;47463;-79
2024/01/11 01:13:46;;;;;;;;;48.75;43.25;;;;;2.71;66.87;102047.88;4906624;28;45375;-79
2024/01/11 01:16:14;;;;;;;;;48.75;43.50;;;;;2.79;67.03;102050.19;4923902;28;45399;-79
2024/01/11 01:18:40;;;;;;;;;51.00;45.00;;;;;2.82;67.05;102041.59;4924670;28;46000;-80
2024/01/11 01:21:06;;;;;;;;;53.25;41.50;;;;;2.91;66.75;102051.81;4921235;28;59284;-79
2024/01/11 01:23:32;;;;;;;;;34.25;30.75;;;;;2.86;65.74;102043.63;4902858;28;45557;-79
2024/01/11 01:25:57;;;;;;;;;60.25;46.25;;;;;2.88;65.96;102042.00;4921634;28;45637;-79
2024/01/11 01:28:23;;;;;;;;;55.50;45.25;;;;;2.89;65.99;102029.78;4922535;28;45526;-78
2024/01/11 01:30:49;;;;;;;;;57.25;46.00;;;;;2.84;65.87;102053.13;4903885;28;47973;-79
2024/01/11 01:33:14;;;;;;;;;43.25;37.50;;;;;2.81;66.04;102050.31;4920691;28;45464;-80
2024/01/11 01:35:39;;;;;;;;;44.00;40.50;;;;;2.68;65.64;102050.28;4904109;28;45398;-79
2024/01/11 01:38:05;;;;;;;;;54.25;44.50;;;;;2.68;66.10;102058.16;4920703;28;45466;-79
2024/01/11 01:40:31;;;;;;;;;51.00;45.50;;;;;2.60;66.64;102061.19;4920572;28;46317;-79
2024/01/11 01:43:00;;;;;;;;;49.00;44.00;;;;;2.73;66.04;102065.56;4903871;28;45349;-79
2024/01/11 01:45:26;;;;;;;;;43.00;39.25;;;;;2.61;66.17;102062.09;4903950;28;45497;-80
2024/01/11 01:47:54;;;;;;;;;42.50;40.00;;;;;2.52;65.73;102075.50;4919913;28;45441;-80
2024/01/11 01:50:21;;;;;;;;;49.25;46.25;;;;;2.46;66.45;102072.47;4903739;28;47660;-81
2024/01/11 01:52:47;;;;;;;;;56.50;45.50;;;;;2.37;66.32;102082.34;4900690;29;45370;-80
2024/01/11 01:55:15;;;;;;;;;46.50;42.25;;;;;2.38;66.46;102089.41;4901639;29;45356;-80
2024/01/11 01:57:43;;;;;;;;;53.50;46.50;;;;;2.31;66.74;102082.84;4899715;29;45648;-80
2024/01/11 02:00:11;;;;;;;;;50.75;45.25;;;;;2.31;66.88;102098.59;4899247;28;46968;-80
2024/01/11 02:02:39;;;;;;;;;50.75;45.75;;;;;2.24;67.10;102096.31;4915705;28;45698;-80
2024/01/11 02:05:06;;;;;;;;;60.75;48.25;;;;;2.08;67.68;102083.88;4900552;28;45383;-80
2024/01/11 02:07:32;;;;;;;;;58.25;47.25;;;;;2.15;67.05;102106.19;4917222;28;44875;-81
2024/01/11 02:09:58;;;;;;;;;57.00;48.00;;;;;2.19;67.49;102106.50;4916810;28;45720;-81
2024/01/11 02:12:25;;;;;;;;;53.75;47.00;;;;;2.12;66.96;102106.91;4916883;28;45482;-80
2024/01/11 02:14:53;;;;;;;;;38.50;34.50;;;;;2.15;67.49;102107.09;4901082;29;45584;-80
2024/01/11 02:17:19;;;;;;;;;51.50;44.25;;;;;2.08;67.39;102110.13;4901888;28;45483;-80
2024/01/11 02:19:44;;;;;;;;;58.25;49.00;;;;;2.09;67.65;102108.41;4900946;28;47384;-80
2024/01/11 02:22:20;;;;;;;;;46.50;42.75;;;;;2.23;67.81;102119.88;4917277;28;45278;-79
2024/01/11 02:24:45;;;;;;;;;59.75;46.25;;;;;2.11;68.11;102115.56;4917535;28;45369;-79
2024/01/11 02:27:10;;;;;;;;;60.00;51.00;;;;;2.13;67.35;102116.59;4903081;28;45458;-79
2024/01/11 02:29:36;;;;;;;;;50.00;43.25;;;;;2.07;67.64;102108.28;4900903;28;48371;-80
2024/01/11 02:32:02;;;;;;;;;20.50;7.50;;;;;2.18;68.08;102124.78;4900175;28;45600;-79
2024/01/11 02:34:29;;;;;;;;;59.25;48.75;;;;;2.09;67.80;102129.41;4902164;29;45459;-79
2024/01/11 02:36:55;;;;;;;;;52.75;47.25;;;;;2.07;68.62;102128.38;4903165;28;45558;-79
2024/01/11 02:39:22;;;;;;;;;52.75;44.25;;;;;2.07;68.48;102116.16;4901237;29;47644;-80
2024/01/11 02:41:50;;;;;;;;;29.00;26.75;;;;;2.11;67.95;102119.91;4916354;28;45459;-80
2024/01/11 02:44:15;;;;;;;;;57.25;45.50;;;;;2.03;67.76;102132.50;4901626;29;45476;-79
2024/01/11 02:46:41;;;;;;;;;47.00;42.25;;;;;2.06;67.89;102142.28;4901307;28;45355;-80
2024/01/11 02:49:06;;;;;;;;;56.50;46.75;;;;;2.03;67.53;102129.88;4916164;28;47255;-81
2024/01/11 02:51:31;;;;;;;;;56.00;46.50;;;;;2.02;68.18;102130.69;4902418;28;45444;-80
2024/01/11 02:53:57;;;;;;;;;50.75;43.00;;;;;2.00;68.02;102127.03;4903371;29;45807;-80
2024/01/11 02:56:23;;;;;;;;;51.75;45.75;;;;;2.00;68.40;102127.03;4903678;29;45483;-80
2024/01/11 02:58:49;;;;;;;;;50.75;45.25;;;;;2.00;68.36;102124.41;4904747;29;47239;-80
2024/01/11 03:01:14;;;;;;;;;54.25;44.50;;;;;2.04;68.28;102122.91;4905418;29;46088;-80
2024/01/11 03:03:39;;;;;;;;;59.50;48.50;;;;;2.05;68.95;102127.34;4905190;28;45826;-80
2024/01/11 03:06:05;;;;;;;;;55.50;48.75;;;;;2.04;68.54;102121.22;4904600;28;45419;-79
2024/01/11 03:08:31;;;;;;;;;46.00;44.00;;;;;2.02;67.62;102133.31;4919473;28;46613;-79
2024/01/11 03:10:56;;;;;;;;;46.75;43.50;;;;;1.99;68.30;102135.69;4887690;29;45342;-80
2024/01/11 03:13:23;;;;;;;;;49.00;45.50;;;;;2.07;68.29;102134.53;4905310;28;45468;-80
2024/01/11 03:15:48;;;;;;;;;51.75;43.50;;;;;2.00;68.83;102127.94;4903815;29;45780;-79
2024/01/11 03:18:13;;;;;;;;;50.75;40.75;;;;;2.04;68.81;102128.13;4904052;28;45571;-81
2024/01/11 03:20:39;;;;;;;;;46.00;43.00;;;;;2.06;68.01;102131.78;4902315;28;45323;-81
2024/01/11 03:23:04;;;;;;;;;57.50;44.50;;;;;2.02;68.45;102130.69;4902128;29;45406;-80
2024/01/11 03:25:29;;;;;;;;;48.25;44.50;;;;;2.01;68.13;102149.84;4902106;29;45569;-80
2024/01/11 03:27:55;;;;;;;;;56.75;47.25;;;;;1.99;68.48;102148.81;4904533;28;45584;-81
2024/01/11 03:30:20;;;;;;;;;57.75;47.00;;;;;1.94;68.25;102148.50;4903265;29;45358;-81
2024/01/11 03:32:45;;;;;;;;;52.00;45.50;;;;;1.92;67.88;102155.34;4904741;28;45357;-81
2024/01/11 03:35:12;;;;;;;;;44.00;37.00;;;;;1.88;68.57;102147.13;4905426;28;45337;-80
2024/01/11 03:37:37;;;;;;;;;49.75;44.50;;;;;1.86;68.66;102143.47;4903483;29;47508;-81
2024/01/11 03:40:04;;;;;;;;;48.00;44.00;;;;;1.97;68.63;102147.78;4901539;28;45432;-80
2024/01/11 03:42:30;;;;;;;;;50.25;46.50;;;;;1.96;68.81;102153.81;4905436;28;45287;-80
2024/01/11 03:44:55;;;;;;;;;61.00;51.25;;;;;1.95;68.69;102146.78;4905650;28;45352;-79
2024/01/11 03:47:21;;;;;;;;;53.00;47.50;;;;;2.00;68.39;102155.91;4905206;28;45485;-79
2024/01/11 03:49:46;;;;;;;;;43.75;35.00;;;;;1.96;68.46;102153.81;4903741;29;45727;-80
2024/01/11 03:52:12;;;;;;;;;56.75;45.00;;;;;1.94;68.48;102147.56;4905265;28;46466;-80
2024/01/11 03:54:37;;;;;;;;;46.50;44.00;;;;;1.90;68.82;102148.16;4921654;28;45511;-80
2024/01/11 03:57:02;;;;;;;;;53.00;44.00;;;;;1.88;68.91;102142.81;4922086;28;46103;-79
2024/01/11 03:59:28;;;;;;;;;44.75;41.75;;;;;1.79;68.33;102129.94;4922456;28;45446;-80
2024/01/11 04:01:53;;;;;;;;;42.25;35.50;;;;;1.80;68.50;102133.50;4922181;28;45436;-80
2024/01/11 04:04:20;;;;;;;;;43.50;42.00;;;;;1.91;69.00;102149.97;4904020;28;45377;-79
2024/01/11 04:06:45;;;;;;;;;55.25;45.00;;;;;1.80;69.07;102144.88;4921905;28;45557;-81
2024/01/11 04:09:11;;;;;;;;;50.75;44.25;;;;;1.83;68.88;102145.91;4921742;28;45498;-80
2024/01/11 04:11:36;;;;;;;;;41.75;41.50;;;;;1.74;69.06;102133.94;4886994;28;54423;-81
2024/01/11 04:14:01;;;;;;;;;52.75;44.00;;;;;1.85;69.42;102158.31;4903140;28;45409;-79
2024/01/11 04:16:27;;;;;;;;;51.00;44.75;;;;;1.87;68.94;102147.94;4905170;28;47235;-80
2024/01/11 04:18:52;;;;;;;;;41.75;37.75;;;;;1.89;68.80;102159.47;4904640;28;45512;-79
2024/01/11 04:21:28;;;;;;;;;50.25;44.75;;;;;1.99;68.86;102161.94;4904130;28;46104;-80
2024/01/11 04:23:53;;;;;;;;;54.50;47.00;;;;;1.85;68.76;102167.91;4904169;28;45394;-80
2024/01/11 04:26:19;;;;;;;;;53.75;45.25;;;;;1.76;69.04;102163.81;4921733;28;46299;-79
2024/01/11 04:28:46;;;;;;;;;41.00;38.75;;;;;1.88;69.20;102168.09;4921191;28;45546;-79
2024/01/11 04:31:12;;;;;;;;;37.25;35.75;;;;;1.88;69.50;102182.16;4904676;28;45428;-80
2024/01/11 04:33:40;;;;;;;;;50.50;41.50;;;;;1.98;69.72;102175.88;4904425;28;45345;-79
2024/01/11 04:36:06;;;;;;;;;45.25;38.25;;;;;1.91;69.53;102178.84;4921422;28;46191;-79
2024/01/11 04:38:31;;;;;;;;;63.00;46.50;;;;;1.90;68.90;102175.31;4921097;28;45442;-81
2024/01/11 04:40:56;;;;;;;;;50.00;43.25;;;;;1.96;69.34;102183.63;4921413;28;45543;-80
2024/01/11 04:43:22;;;;;;;;;53.00;44.00;;;;;1.98;69.11;102186.38;4921159;28;45509;-80
2024/01/11 04:45:47;;;;;;;;;46.25;41.75;;;;;1.96;69.31;102185.31;4920342;28;45820;-78
2024/01/11 04:48:19;;;;;;;;;52.00;42.50;;;;;2.10;69.54;102187.25;4900759;28;45485;-80
2024/01/11 04:50:45;;;;;;;;;52.50;45.25;;;;;1.95;69.44;102175.63;4901324;28;45426;-79
2024/01/11 04:53:17;;;;;;;;;57.00;44.00;;;;;1.97;69.27;102190.69;4625610;29;8091427;-80
2024/01/11 04:55:49;;;;;;;;;52.50;46.50;;;;;2.16;69.22;102190.31;4903564;28;45412;-79
2024/01/11 04:58:14;;;;;;;;;33.75;30.75;;;;;2.03;69.01;102184.06;4901207;28;47043;-80
2024/01/11 05:00:40;;;;;;;;;51.50;46.50;;;;;2.02;69.62;102172.66;4901414;29;58520;-80
2024/01/11 05:03:06;;;;;;;;;49.50;44.00;;;;;2.03;69.52;102179.72;4901261;29;45728;-79
2024/01/11 05:05:38;;;;;;;;;48.25;41.25;;;;;2.18;69.60;102185.13;4919620;28;45411;-79
2024/01/11 05:08:05;;;;;;;;;51.25;44.75;;;;;2.00;69.65;102185.66;4904185;29;48163;-79
2024/01/11 05:10:30;;;;;;;;;52.50;43.75;;;;;1.97;69.05;102184.53;4901978;29;45909;-79
2024/01/11 05:12:55;;;;;;;;;41.25;36.25;;;;;2.01;69.27;102202.31;4901078;29;45845;-80
2024/01/11 05:15:21;;;;;;;;;47.75;42.00;;;;;2.01;69.15;102191.81;4901602;28;44870;-80
2024/01/11 05:17:46;;;;;;;;;46.00;41.25;;;;;1.96;68.64;102193.19;4902787;28;45353;-80
2024/01/11 05:20:12;;;;;;;;;59.00;46.50;;;;;1.93;68.52;102190.34;4901215;29;45444;-80
2024/01/11 05:22:37;;;;;;;;;46.00;36.75;;;;;1.92;69.36;102191.13;4902113;29;45512;-79
2024/01/11 05:25:03;;;;;;;;;56.50;44.75;;;;;1.88;68.94;102197.91;4903392;28;44892;-82
2024/01/11 05:28:12;;;;;;;;;53.75;44.00;;;;;2.08;69.47;102201.97;4900724;28;45899;-81
2024/01/11 05:30:37;;;;;;;;;24.50;22.00;;;;;1.90;68.97;102203.22;4902000;28;45450;-79
2024/01/11 05:33:04;;;;;;;;;46.75;44.00;;;;;1.91;69.68;102191.97;4901152;29;45421;-80
2024/01/11 05:35:29;;;;;;;;;43.25;38.25;;;;;1.90;69.68;102190.13;4901416;29;45454;-80
2024/01/11 05:37:57;;;;;;;;;50.25;44.00;;;;;1.92;69.65;102184.22;4898192;29;46931;-80
2024/01/11 05:40:24;;;;;;;;;44.00;38.25;;;;;1.97;69.34;102185.44;4901275;28;45440;-80
2024/01/11 05:42:49;;;;;;;;;45.00;41.75;;;;;1.97;69.66;102184.53;4900891;29;45417;-80
2024/01/11 05:45:16;;;;;;;;;49.25;43.50;;;;;2.01;69.59;102186.56;4902083;28;45606;-81
2024/01/11 05:47:44;;;;;;;;;55.50;44.25;;;;;2.07;69.86;102196.59;4902223;28;47499;-80
2024/01/11 05:50:09;;;;;;;;;60.75;47.25;;;;;2.05;69.69;102193.84;4902032;28;45386;-80
2024/01/11 05:52:35;;;;;;;;;54.00;47.00;;;;;2.07;69.43;102201.84;4901129;29;45803;-79
2024/01/11 05:55:00;;;;;;;;;56.50;47.75;;;;;2.08;69.93;102199.34;4901927;29;45581;-79
2024/01/11 05:57:25;;;;;;;;;61.50;50.25;;;;;2.09;70.17;102201.16;4903383;28;45576;-80
2024/01/11 05:59:51;;;;;;;;;57.75;47.75;;;;;2.12;70.28;102208.31;4903569;29;45442;-80
2024/01/11 06:02:17;;;;;;;;;62.50;46.75;;;;;2.19;69.85;102210.59;4902614;29;45569;-80
2024/01/11 06:04:43;;;;;;;;;47.75;44.75;;;;;2.07;70.32;102215.88;4903441;29;45528;-79
2024/01/11 06:07:09;;;;;;;;;56.75;50.75;;;;;2.05;70.20;102222.72;4903310;29;46090;-80
2024/01/11 06:09:34;;;;;;;;;52.50;46.25;;;;;1.98;70.74;102217.84;4901516;29;45413;-81
2024/01/11 06:12:01;;;;;;;;;58.75;48.25;;;;;2.02;70.25;102225.16;4900845;28;54119;-80
2024/01/11 06:14:27;;;;;;;;;54.50;47.75;;;;;2.04;70.73;102233.09;4899884;29;45459;-80
2024/01/11 06:16:52;;;;;;;;;55.00;46.50;;;;;2.02;71.32;102240.88;4898933;29;48396;-80
2024/01/11 06:19:19;;;;;;;;;41.00;41.00;;;;;2.02;71.05;102235.63;4899904;29;45944;-80
2024/01/11 06:21:44;;;;;;;;;64.25;49.25;;;;;1.94;71.03;102247.25;4900738;29;45453;-80
2024/01/11 06:24:10;;;;;;;;;51.25;44.00;;;;;2.00;70.82;102250.38;4901129;28;45325;-80
2024/01/11 06:26:36;;;;;;;;;53.25;44.00;;;;;2.06;71.01;102250.81;4900005;29;46624;-80
2024/01/11 06:29:02;;;;;;;;;58.25;47.00;;;;;1.98;71.06;102263.38;4903146;28;45472;-80
2024/01/11 06:31:27;;;;;;;;;59.25;50.00;;;;;1.97;71.39;102260.63;4901085;29;45394;-80
2024/01/11 06:33:52;;;;;;;;;47.75;43.50;;;;;2.00;71.38;102269.63;4900690;29;45409;-81
2024/01/11 06:36:18;;;;;;;;;54.25;47.00;;;;;1.98;71.10;102262.47;4900331;29;47114;-80
2024/01/11 06:42:05;;;;;;;;;53.50;46.25;;;;;1.85;71.79;102258.00;4903764;29;45501;-81
2024/01/11 06:44:31;;;;;;;;;62.50;48.00;;;;;1.76;71.92;102263.50;4900356;28;45603;-79
2024/01/11 06:46:56;;;;;;;;;54.75;46.75;;;;;1.72;71.93;102271.94;4903134;29;47341;-81
2024/01/11 06:49:21;;;;;;;;;58.00;50.50;;;;;1.72;72.12;102287.66;4904234;28;45586;-80
2024/01/11 06:51:47;;;;;;;;;54.00;47.50;;;;;1.66;72.59;102289.84;4905749;28;45679;-80
2024/01/11 06:54:12;;;;;;;;;66.25;55.50;;;;;1.65;72.26;102298.47;4920448;28;45479;-80
2024/01/11 06:56:38;;;;;;;;;54.75;48.25;;;;;1.59;72.15;102306.78;4923989;28;46599;-80
2024/01/11 06:59:03;;;;;;;;;55.50;45.50;;;;;1.54;72.58;102307.28;4920840;28;45482;-81
2024/01/11 07:01:29;;;;;;;;;58.00;47.00;;;;;1.50;72.28;102313.97;4905969;28;45409;-79
2024/01/11 07:03:54;;;;;;;;;66.00;49.50;;;;;1.51;73.03;102312.25;4907993;28;45346;-81
2024/01/11 07:06:19;;;;;;;;;59.50;46.50;;;;;1.54;72.88;102326.53;4904942;28;46992;-82
2024/01/11 07:08:45;;;;;;;;;60.00;50.75;;;;;1.53;72.83;102315.91;4922007;28;45490;-81
2024/01/11 07:11:11;;;;;;;;;42.50;40.25;;;;;1.55;73.41;102311.69;4906599;28;45568;-81
2024/01/11 07:13:36;;;;;;;;;59.75;50.25;;;;;1.47;73.55;102302.34;4922952;28;45546;-81
2024/01/11 07:16:03;;;;;;;;;57.75;44.00;;;;;1.58;73.09;102311.94;4922529;28;45795;-81
2024/01/11 07:18:29;;;;;;;;;67.50;51.50;;;;;1.49;72.79;102309.53;4921459;28;45399;-81
2024/01/11 07:20:57;;;;;;;;;65.00;52.25;;;;;1.62;73.62;102310.44;4921985;28;45559;-81
2024/01/11 07:23:22;;;;;;;;;63.50;49.50;;;;;1.54;73.42;102317.75;4905373;28;45390;-79
2024/01/11 07:25:47;;;;;;;;;51.75;43.75;;;;;1.56;73.60;102310.91;4920985;28;61658;-80
2024/01/11 07:28:13;;;;;;;;;52.75;47.00;;;;;1.57;73.79;102323.22;4903656;28;45094;-81
2024/01/11 07:30:39;;;;;;;;;57.25;49.75;;;;;1.61;73.55;102330.53;4921647;28;45510;-80
2024/01/11 07:33:05;;;;;;;;;54.75;48.75;;;;;1.60;73.57;102339.19;4919826;28;45918;-82
2024/01/11 07:35:39;;;;;;;;;38.75;37.25;;;;;1.56;73.42;102330.19;4922124;28;45494;-80
2024/01/11 07:38:11;;;;;;;;;190.33;164.33;;;;;1.52;73.77;102335.09;4907134;28;45535;-81
2024/01/11 07:40:38;;;;;;;;;97.50;74.75;;;;;1.52;73.81;102330.75;4927217;28;44902;-81
2024/01/11 07:43:04;;;;;;;;;67.00;56.25;;;;;1.60;73.42;102347.97;4941048;28;44973;-81
2024/01/11 07:45:37;;;;;;;;;64.50;54.00;;;;;1.73;74.07;102336.69;4929357;28;45440;-80
2024/01/11 07:48:03;;;;;;;;;64.00;56.00;;;;;1.55;73.70;102324.81;4947068;28;44883;-81
2024/01/11 07:50:30;;;;;;;;;59.50;48.75;;;;;1.73;73.57;102346.28;4954497;28;44835;-81
2024/01/11 07:52:56;;;;;;;;;67.75;50.75;;;;;1.63;73.92;102346.38;4948011;28;44790;-81
2024/01/11 07:55:23;;;;;;;;;50.75;45.00;;;;;1.66;73.30;102359.75;4949426;28;46366;-80
2024/01/11 07:57:49;;;;;;;;;60.00;51.25;;;;;1.59;74.02;102338.25;4936613;28;45423;-82
2024/01/11 08:00:16;;;;;;;;;68.00;55.00;;;;;1.63;73.78;102354.25;4915877;28;44851;-82
2024/01/11 08:06:07;;;;;;;;;56.75;49.25;;;;;1.61;73.73;102369.84;4952211;28;45005;-83
2024/01/11 08:08:33;;;;;;;;;72.50;55.75;;;;;1.38;73.74;102337.56;4935493;28;44835;-81
2024/01/11 08:11:03;;;;;;;;;66.00;54.00;;;;;1.50;74.27;102339.28;4936853;28;45432;-82
2024/01/11 08:13:31;;;;;;;;;59.50;50.50;;;;;1.58;73.60;102367.91;4934976;28;44918;-82
2024/01/11 08:19:18;;;;;;;;;61.75;50.00;;;;;1.54;73.46;102372.81;4952314;28;45346;-82
2024/01/11 08:21:44;;;;;;;;;68.25;53.75;;;;;1.45;73.77;102361.63;4956827;28;44748;-81
2024/01/11 08:24:09;;;;;;;;;69.00;55.50;;;;;1.55;74.04;102369.38;4954775;28;44844;-82
2024/01/11 08:26:35;;;;;;;;;65.75;53.25;;;;;1.59;73.85;102368.81;4935478;28;47634;-80
2024/01/11 08:29:00;;;;;;;;;49.00;41.25;;;;;1.61;73.92;102361.97;4944846;28;45365;-79
2024/01/11 08:31:25;;;;;;;;;66.50;49.00;;;;;1.65;73.91;102358.81;4945263;28;45371;-81
2024/01/11 08:33:51;;;;;;;;;68.25;53.00;;;;;1.72;73.73;102361.09;4926531;28;45315;-80
2024/01/11 08:36:17;;;;;;;;;60.00;50.50;;;;;1.69;74.02;102354.72;4938829;28;45598;-82
2024/01/11 08:38:42;;;;;;;;;60.00;51.25;;;;;1.70;73.95;102362.69;4943740;28;45501;-79
2024/01/11 08:44:30;;;;;;;;;67.75;56.00;;;;;1.55;73.48;102362.41;4944881;28;45286;-79
2024/01/11 08:46:57;;;;;;;;;63.75;54.50;;;;;1.59;73.80;102376.69;4930239;28;45443;-79
2024/01/11 08:49:27;;;;;;;;;66.50;52.00;;;;;1.59;73.81;102374.06;4918764;28;45735;-79
2024/01/11 08:51:52;;;;;;;;;72.50;55.50;;;;;1.46;73.97;102366.06;4942978;28;45321;-79
2024/01/11 08:54:20;;;;;;;;;70.25;52.75;;;;;1.44;74.19;102381.69;4919419;28;45589;-78
2024/01/11 08:56:46;;;;;;;;;68.00;51.00;;;;;1.45;74.56;102385.19;4912672;28;48081;-80
2024/01/11 09:06:59;;;;;;;;;69.00;53.50;;;;;1.47;74.51;102368.78;5503360;23;46688;-85
2024/01/11 09:09:25;;;;;;;;;61.25;52.75;;;;;1.32;74.46;102358.06;4921311;28;45359;-82
2024/01/11 09:11:50;;;;;;;;;55.75;46.75;;;;;1.39;74.31;102394.44;4938768;28;44875;-81
2024/01/11 09:14:16;;;;;;;;;66.25;53.25;;;;;1.26;74.50;102369.78;4948445;28;44858;-79
2024/01/11 09:16:41;;;;;;;;;65.75;53.50;;;;;1.33;74.79;102380.84;4927445;28;47149;-79
2024/01/11 09:19:07;;;;;;;;;53.75;44.00;;;;;1.35;74.38;102395.00;4939534;28;44921;-79
2024/01/11 09:21:38;;;;;;;;;65.25;52.50;;;;;1.42;75.00;102387.59;4916411;28;44956;-80
2024/01/11 09:25:00;;;;;;;;;66.25;50.50;;;;;1.70;74.67;102394.16;4938276;28;45130;-81
2024/01/11 09:27:26;;;;;;;;;46.75;45.00;;;;;1.63;74.69;102393.56;4857823;29;47056;-80
2024/01/11 09:29:57;;;;;;;;;60.50;49.75;;;;;1.62;74.59;102357.66;4846622;29;44860;-81
2024/01/11 09:32:22;;;;;;;;;55.50;50.50;;;;;1.52;73.95;102343.84;4848035;29;44916;-80
2024/01/11 09:34:48;;;;;;;;;48.25;44.50;;;;;1.80;74.16;102377.44;4861959;29;44976;-81
2024/01/11 09:37:34;;;;;;;;;59.00;49.25;;;;;1.79;74.21;102351.97;4838207;29;45270;-81
2024/01/11 09:40:00;;;;;;;;;72.00;57.00;;;;;1.92;73.93;102380.03;4841385;29;44743;-79
2024/01/11 09:42:26;;;;;;;;;51.50;44.50;;;;;2.05;73.96;102392.41;4828127;29;44851;-80
2024/01/11 09:44:58;;;;;;;;;57.50;50.00;;;;;2.11;73.59;102371.84;4840669;29;44844;-80
2024/01/11 09:47:25;;;;;;;;;60.25;49.75;;;;;2.15;73.39;102392.28;4841922;29;47293;-80
2024/01/11 09:49:54;;;;;;;;;62.75;51.25;;;;;2.24;72.69;102400.81;4843306;29;45323;-79
2024/01/11 09:52:21;;;;;;;;;61.00;48.75;;;;;2.17;73.12;102377.56;4859010;29;44777;-79
2024/01/11 09:54:47;;;;;;;;;58.00;52.00;;;;;2.25;72.35;102388.63;4847222;29;44897;-79
2024/01/11 09:57:18;;;;;;;;;68.00;56.00;;;;;2.37;71.89;102386.91;4864687;28;45709;-80
2024/01/11 09:59:43;;;;;;;;;62.25;49.50;;;;;2.32;72.20;102396.16;4906689;28;45360;-80
2024/01/11 10:02:11;;;;;;;;;64.00;54.50;;;;;2.39;72.29;102390.56;4926618;28;45395;-80
2024/01/11 10:04:37;;;;;;;;;74.50;55.25;;;;;2.42;71.97;102382.88;4907437;28;45503;-79
2024/01/11 10:07:06;;;;;;;;;71.50;54.25;;;;;2.54;71.30;102365.41;4902945;28;47188;-79
2024/01/11 10:09:31;;;;;;;;;63.50;51.50;;;;;2.51;71.64;102385.31;4903542;28;45504;-80
2024/01/11 10:11:56;;;;;;;;;64.00;51.50;;;;;2.57;70.66;102391.00;4923592;28;44788;-78
2024/01/11 10:14:22;;;;;;;;;63.25;51.50;;;;;2.62;71.32;102378.19;4908839;28;45345;-80
2024/01/11 10:16:48;;;;;;;;;52.50;40.00;;;;;2.65;70.46;102383.69;4909639;28;46729;-79
2024/01/11 10:19:16;;;;;;;;;54.50;47.75;;;;;2.56;70.30;102358.53;4925444;28;44843;-80
2024/01/11 10:21:41;;;;;;;;;69.50;54.75;;;;;2.73;70.80;102379.91;4908477;29;45414;-80
2024/01/11 10:24:09;;;;;;;;;58.75;48.75;;;;;2.75;70.15;102375.66;4923434;28;45418;-79
2024/01/11 10:26:41;;;;;;;;;67.25;50.50;;;;;2.76;70.66;102354.72;4921795;28;47335;-82
2024/01/11 10:29:10;;;;;;;;;66.00;54.00;;;;;2.91;69.93;102368.06;4890306;29;45383;-80
2024/01/11 10:31:37;;;;;;;;;56.00;48.50;;;;;2.89;67.88;102355.59;4885851;29;45417;-79
2024/01/11 10:34:04;;;;;;;;;58.50;49.75;;;;;3.02;69.66;102354.78;4900628;29;45372;-80
2024/01/11 10:36:32;;;;;;;;;63.25;51.75;;;;;2.99;69.65;102321.31;4887500;29;46189;-81
2024/01/11 10:39:04;;;;;;;;;68.75;55.25;;;;;3.07;69.34;102332.34;4915591;28;45530;-80
2024/01/11 10:41:41;;;;;;;;;63.50;52.25;;;;;3.18;69.26;102337.53;4901221;29;45765;-81
2024/01/11 10:44:21;;;;;;;;;61.25;48.25;;;;;3.15;68.65;102329.47;4908548;28;44940;-80
2024/01/11 10:46:55;;;;;;;;;69.50;56.25;;;;;3.24;68.93;102342.31;4898968;28;45421;-80
2024/01/11 10:49:31;;;;;;;;;62.25;52.25;;;;;3.23;68.70;102327.34;4888128;28;45408;-81
2024/01/11 10:52:15;;;;;;;;;68.25;55.25;;;;;3.33;67.77;102332.47;4917772;28;45418;-81
2024/01/11 10:54:42;;;;;;;;;57.50;46.75;;;;;3.33;68.46;102347.28;4906837;28;45455;-80
2024/01/11 10:57:37;;;;;;;;;56.25;47.75;;;;;3.23;67.92;102344.84;4901114;28;47388;-83
2024/01/11 11:00:03;;;;;;;;;49.50;43.75;;;;;3.16;66.84;102331.28;4829031;29;46300;-81
2024/01/11 11:02:31;;;;;;;;;53.00;44.00;;;;;3.47;67.82;102369.28;4852496;29;45333;-80
2024/01/11 11:04:57;;;;;;;;;56.25;47.00;;;;;3.31;64.97;102326.19;4855976;29;45711;-80
2024/01/11 11:07:31;;;;;;;;;51.25;43.00;;;;;3.68;66.50;102362.88;4837413;29;47998;-82
2024/01/11 11:09:59;;;;;;;;;59.00;49.00;;;;;3.60;65.26;102351.84;4848058;29;45550;-80
2024/01/11 11:12:31;;;;;;;;;55.75;48.25;;;;;3.64;65.38;102344.16;4865909;29;45856;-82
2024/01/11 11:14:58;;;;;;;;;62.50;49.75;;;;;3.67;65.04;102350.53;4851898;29;45540;-81
2024/01/11 11:17:24;;;;;;;;;55.50;47.00;;;;;3.75;66.83;102365.09;4871089;28;45656;-80
2024/01/11 11:20:09;;;;;;;;;53.50;45.50;;;;;3.96;64.86;102356.84;4870303;29;45425;-80
2024/01/11 11:22:35;;;;;;;;;62.50;48.75;;;;;3.80;62.05;102368.97;4856861;29;45536;-81
2024/01/11 11:25:29;;;;;;;;;27.00;25.75;;;;;3.91;61.84;102384.56;4870479;29;45395;-80
2024/01/11 11:27:57;;;;;;;;;61.25;48.00;;;;;3.78;63.22;102362.69;4872295;29;45405;-80
2024/01/11 11:30:26;;;;;;;;;52.75;44.50;;;;;3.83;62.03;102377.88;4856841;29;45870;-80
2024/01/11 11:36:46;;;;;;;;;34.50;30.25;;;;;3.75;63.02;102358.94;4808375;29;45595;-78
2024/01/11 11:39:23;;;;;;;;;;;;;;;;;;;;;
2024/01/11 11:41:49;;;;;;;;;58.25;46.75;;;;;3.56;61.59;102346.25;4831313;29;71900;-81
2024/01/11 11:47:35;;;;;;;;;68.50;52.25;;;;;3.90;62.61;102385.38;4832012;29;45505;-81
2024/01/11 11:50:11;;;;;;;;;61.00;46.75;;;;;3.84;61.91;102379.69;4831012;29;46749;-80
2024/01/11 11:53:11;;;;;;;;;;;;;;;;;;;;;
2024/01/11 11:56:10;;;;;;;;;;;;;;;;;;;;;